Time;durP1;ratioP1;P1;durP2;ratioP2;P2;SDS_P1;SDS_P2;PMS_P1;PMS_P2;Temp;Humidity;BMP_temperature;BMP_pressure;BME280_temperature;BME280_humidity;BME280_pressure;Samples;Min_cycle;Max_cycle;Signal;HPM_P1;HPM_P2
2023/09/04 00:00:33;;;;;;;3.20;2.10;;;18.60;1.00;;;;;;5035034;28;20426;-83
2023/09/04 00:02:59;;;;;;;2.60;1.70;;;18.20;1.00;;;;;;5036491;28;20387;-84
2023/09/04 00:05:24;;;;;;;1.95;1.75;;;18.60;1.00;;;;;;5036075;28;20767;-83
2023/09/04 00:07:50;;;;;;;3.00;1.70;;;18.40;1.00;;;;;;5034479;28;20498;-82
2023/09/04 00:10:15;;;;;;;2.40;1.80;;;18.00;1.00;;;;;;5034072;28;20568;-83
2023/09/04 00:12:41;;;;;;;2.30;2.10;;;18.20;1.00;;;;;;5035386;28;20411;-83
2023/09/04 00:15:07;;;;;;;2.57;1.70;;;18.10;1.00;;;;;;5035643;28;20399;-84
2023/09/04 00:17:33;;;;;;;3.80;2.47;;;18.10;1.00;;;;;;5036159;28;20387;-84
2023/09/04 00:19:58;;;;;;;2.15;1.70;;;18.40;1.00;;;;;;5035679;28;20399;-83
2023/09/04 00:22:27;;;;;;;2.28;2.08;;;18.20;1.00;;;;;;5034165;28;20383;-85
2023/09/04 00:24:53;;;;;;;1.97;1.87;;;18.40;1.00;;;;;;5036030;28;20463;-83
2023/09/04 00:27:19;;;;;;;3.40;1.90;;;20.40;1.00;;;;;;5036377;28;20390;-83
2023/09/04 00:29:45;;;;;;;3.50;1.90;;;18.30;1.00;;;;;;5034565;28;21232;-83
2023/09/04 00:32:11;;;;;;;3.00;1.70;;;18.10;1.00;;;;;;5036764;28;20410;-84
2023/09/04 00:34:36;;;;;;;4.03;2.03;;;17.80;1.00;;;;;;5034289;28;20379;-83
2023/09/04 00:37:02;;;;;;;2.10;1.90;;;17.80;1.00;;;;;;5033486;28;20400;-84
2023/09/04 00:39:28;;;;;;;2.97;1.88;;;18.20;1.00;;;;;;5033467;28;20388;-83
2023/09/04 00:41:53;;;;;;;1.98;1.77;;;17.70;1.00;;;;;;5035146;28;20391;-84
2023/09/04 00:44:19;;;;;;;3.23;1.70;;;18.30;1.00;;;;;;5017586;28;20472;-83
2023/09/04 00:46:45;;;;;;;3.40;2.00;;;18.40;1.00;;;;;;5027196;28;20814;-82
2023/09/04 00:49:12;;;;;;;2.03;1.88;;;17.80;1.00;;;;;;5042912;28;20950;-83
2023/09/04 00:51:39;;;;;;;2.60;1.85;;;18.10;1.00;;;;;;5043229;28;20415;-84
2023/09/04 00:54:05;;;;;;;1.90;1.80;;;18.40;1.00;;;;;;5044629;28;20401;-83
2023/09/04 00:56:32;;;;;;;3.00;2.10;;;;;;;;;;5040442;28;20427;-84
2023/09/04 00:58:58;;;;;;;1.90;1.55;;;;;;;;;;5037122;28;20437;-84
2023/09/04 01:01:24;;;;;;;1.90;1.80;;;17.90;1.00;;;;;;5036464;28;20752;-84
2023/09/04 01:03:49;;;;;;;3.80;2.20;;;18.30;1.00;;;;;;5049370;28;20391;-82
2023/09/04 01:06:15;;;;;;;2.00;1.90;;;17.30;1.00;;;;;;5051350;28;20395;-82
2023/09/04 01:08:40;;;;;;;2.17;1.97;;;18.30;1.00;;;;;;5052027;28;20387;-82
2023/09/04 01:11:28;;;;;;;2.10;1.90;;;18.00;1.00;;;;;;5036736;28;20495;-83
2023/09/04 01:13:55;;;;;;;3.13;1.88;;;18.10;1.00;;;;;;5033956;28;20383;-83
2023/09/04 01:16:22;;;;;;;1.97;1.77;;;;;;;;;;5034726;28;20394;-82
2023/09/04 01:18:48;;;;;;;1.90;1.80;;;18.00;1.00;;;;;;5034296;28;20371;-84
2023/09/04 01:21:14;;;;;;;1.80;1.70;;;19.20;1.00;;;;;;5036330;28;20423;-82
2023/09/04 01:23:40;;;;;;;2.10;2.00;;;;;;;;;;5041712;28;20405;-82
2023/09/04 01:26:12;;;;;;;2.00;1.80;;;17.50;1.00;;;;;;5047438;28;20416;-82
2023/09/04 01:28:47;;;;;;;1.98;1.77;;;18.20;1.00;;;;;;5037001;28;20409;-83
2023/09/04 01:31:12;;;;;;;2.17;1.65;;;18.40;1.00;;;;;;5046179;28;20426;-84
2023/09/04 01:33:42;;;;;;;2.90;1.77;;;18.40;1.00;;;;;;5039280;28;20395;-83
2023/09/04 01:36:12;;;;;;;2.67;1.90;;;17.70;1.00;;;;;;5048558;28;20442;-83
2023/09/04 01:38:38;;;;;;;2.30;1.95;;;17.70;1.00;;;;;;5046780;28;20440;-82
2023/09/04 01:41:05;;;;;;;2.05;1.85;;;17.90;1.00;;;;;;5047211;28;20390;-82
2023/09/04 01:43:31;;;;;;;2.43;1.60;;;18.10;1.00;;;;;;5046138;28;20490;-83
2023/09/04 01:45:57;;;;;;;2.20;2.00;;;18.10;1.00;;;;;;5042737;28;20453;-83
2023/09/04 01:48:22;;;;;;;2.90;1.70;;;17.80;1.00;;;;;;5043290;28;20382;-85
2023/09/04 01:50:48;;;;;;;2.90;1.70;;;18.00;1.00;;;;;;5051052;28;20435;-83
2023/09/04 01:53:13;;;;;;;2.10;1.90;;;18.40;1.00;;;;;;5049988;28;20449;-83
2023/09/04 01:55:39;;;;;;;2.10;1.60;;;17.60;1.00;;;;;;5041050;28;20476;-84
2023/09/04 01:58:04;;;;;;;2.30;1.80;;;18.30;1.00;;;;;;5040623;28;20399;-84
2023/09/04 02:00:30;;;;;;;2.50;2.30;;;18.20;1.00;;;;;;5039731;28;20398;-83
2023/09/04 02:02:55;;;;;;;1.50;1.40;;;18.20;1.00;;;;;;5038762;28;20406;-84
2023/09/04 02:05:21;;;;;;;1.60;1.50;;;17.60;1.00;;;;;;5039529;28;20549;-84
2023/09/04 02:07:47;;;;;;;1.70;1.60;;;;;;;;;;5043481;28;20762;-83
2023/09/04 02:10:12;;;;;;;2.50;1.65;;;18.00;1.00;;;;;;5042197;28;20872;-83
2023/09/04 02:12:38;;;;;;;2.10;1.90;;;;;;;;;;5039357;28;20843;-83
2023/09/04 02:15:05;;;;;;;1.80;1.70;;;18.20;1.00;;;;;;5038026;28;20388;-82
2023/09/04 02:17:30;;;;;;;2.10;1.55;;;18.30;1.00;;;;;;5037316;28;20403;-83
2023/09/04 02:19:56;;;;;;;2.20;1.80;;;18.10;1.00;;;;;;5040481;28;20395;-82
2023/09/04 02:22:21;;;;;;;1.87;1.70;;;18.10;1.00;;;;;;5039980;28;20386;-83
2023/09/04 02:24:47;;;;;;;1.90;1.70;;;17.90;1.00;;;;;;5037013;28;20430;-83
2023/09/04 02:27:13;;;;;;;2.90;1.60;;;18.00;1.00;;;;;;5039956;28;20426;-84
2023/09/04 02:29:39;;;;;;;2.50;1.70;;;17.70;1.00;;;;;;5040120;28;20449;-84
2023/09/04 02:32:05;;;;;;;3.00;1.67;;;;;;;;;;5037710;28;20415;-83
2023/09/04 02:34:30;;;;;;;3.60;2.10;;;17.90;1.00;;;;;;5039545;28;20906;-83
2023/09/04 02:36:58;;;;;;;1.83;1.63;;;18.60;1.00;;;;;;5033866;28;20391;-82
2023/09/04 02:39:23;;;;;;;2.50;1.60;;;18.50;1.00;;;;;;5028087;28;20700;-83
2023/09/04 02:41:50;;;;;;;1.60;1.50;;;17.40;1.00;;;;;;5041646;28;20383;-82
2023/09/04 02:44:15;;;;;;;1.93;1.83;;;18.30;1.00;;;;;;5027619;28;20407;-83
2023/09/04 02:46:41;;;;;;;2.70;1.60;;;17.70;1.00;;;;;;5032046;28;20420;-82
2023/09/04 02:49:06;;;;;;;3.50;1.80;;;17.80;1.00;;;;;;5018561;28;20393;-81
2023/09/04 02:51:32;;;;;;;3.60;1.77;;;17.80;1.00;;;;;;5029334;28;20468;-82
2023/09/04 02:53:57;;;;;;;2.38;1.70;;;17.80;1.00;;;;;;5025034;28;20772;-82
2023/09/04 02:56:23;;;;;;;1.70;1.50;;;17.60;1.00;;;;;;5012977;28;20959;-83
2023/09/04 02:58:49;;;;;;;1.80;1.70;;;17.70;1.00;;;;;;5028036;28;20465;-81
2023/09/04 03:01:16;;;;;;;4.30;1.50;;;17.90;1.00;;;;;;5016529;28;20423;-83
2023/09/04 03:03:41;;;;;;;1.60;1.50;;;17.60;1.00;;;;;;5031398;28;20489;-83
2023/09/04 03:06:08;;;;;;;2.42;1.70;;;17.70;1.00;;;;;;5023720;28;20429;-82
2023/09/04 03:08:34;;;;;;;1.80;1.70;;;17.70;1.00;;;;;;5041350;28;20389;-82
2023/09/04 03:11:00;;;;;;;3.80;1.87;;;;;;;;;;5033060;28;20825;-86
2023/09/04 03:13:25;;;;;;;2.30;1.80;;;;;;;;;;5031792;28;20894;-87
2023/09/04 03:15:51;;;;;;;1.50;1.40;;;18.00;1.00;;;;;;5026889;28;20712;-85
2023/09/04 03:18:16;;;;;;;2.00;1.57;;;17.50;1.00;;;;;;5031795;28;20903;-86
2023/09/04 03:20:43;;;;;;;2.20;1.60;;;18.10;1.00;;;;;;5028791;28;20405;-86
2023/09/04 03:23:08;;;;;;;1.50;1.40;;;17.80;1.00;;;;;;5030070;28;21027;-86
2023/09/04 03:25:35;;;;;;;1.97;1.70;;;17.70;1.00;;;;;;5028631;28;20389;-85
2023/09/04 03:28:01;;;;;;;2.50;1.30;;;17.70;1.00;;;;;;5023772;28;20397;-86
2023/09/04 03:30:27;;;;;;;1.85;1.67;;;18.30;1.00;;;;;;5023019;28;20440;-87
2023/09/04 03:32:52;;;;;;;1.80;1.70;;;18.00;1.00;;;;;;5031178;28;20394;-85
2023/09/04 03:35:18;;;;;;;1.70;1.60;;;17.80;1.00;;;;;;5029880;28;20474;-86
2023/09/04 03:37:43;;;;;;;2.00;1.90;;;17.80;1.00;;;;;;5029808;28;20446;-86
2023/09/04 03:40:22;;;;;;;1.60;1.50;;;17.80;1.00;;;;;;5027878;28;20759;-85
2023/09/04 03:42:48;;;;;;;2.33;1.80;;;17.60;1.00;;;;;;5029086;28;20810;-85
2023/09/04 03:45:14;;;;;;;2.00;1.80;;;17.40;1.00;;;;;;5027542;28;20391;-85
2023/09/04 03:47:39;;;;;;;1.83;1.70;;;18.00;1.00;;;;;;5029285;28;20747;-85
2023/09/04 03:50:08;;;;;;;1.80;1.70;;;17.90;1.00;;;;;;5027359;28;20770;-86
2023/09/04 03:52:34;;;;;;;1.80;1.27;;;18.30;1.00;;;;;;5028879;28;20853;-85
2023/09/04 03:54:59;;;;;;;1.65;1.55;;;18.00;1.00;;;;;;5030435;28;20403;-86
2023/09/04 03:57:25;;;;;;;2.60;1.60;;;17.40;1.00;;;;;;5030066;28;20387;-86
2023/09/04 03:59:56;;;;;;;1.90;1.70;;;19.60;1.00;;;;;;5028714;28;20399;-86
2023/09/04 04:02:21;;;;;;;3.70;1.30;;;18.30;1.00;;;;;;5028654;28;20379;-86
2023/09/04 04:04:50;;;;;;;1.70;1.60;;;18.60;1.00;;;;;;5025741;28;20415;-86
2023/09/04 04:07:16;;;;;;;2.50;1.80;;;18.40;1.00;;;;;;5037371;28;20390;-87
2023/09/04 04:09:43;;;;;;;1.70;1.50;;;18.40;1.00;;;;;;5059508;28;20393;-85
2023/09/04 04:12:09;;;;;;;2.30;1.50;;;18.30;1.00;;;;;;5045464;28;20444;-86
2023/09/04 04:14:34;;;;;;;1.58;1.48;;;18.20;1.00;;;;;;5044751;28;20391;-86
2023/09/04 04:17:01;;;;;;;2.10;1.90;;;18.20;1.00;;;;;;5031841;28;20399;-86
2023/09/04 04:19:27;;;;;;;2.58;2.20;;;18.60;1.00;;;;;;5030232;28;20419;-86
2023/09/04 04:21:52;;;;;;;3.30;2.65;;;18.60;1.00;;;;;;5032167;28;20903;-86
2023/09/04 04:24:19;;;;;;;3.00;2.80;;;;;;;;;;5031738;28;20732;-86
2023/09/04 04:26:45;;;;;;;3.20;2.80;;;18.20;1.00;;;;;;5030113;28;20379;-86
2023/09/04 04:29:10;;;;;;;3.63;3.33;;;18.00;1.00;;;;;;5032041;28;20434;-87
2023/09/04 04:31:36;;;;;;;4.85;3.72;;;17.20;1.00;;;;;;5035694;28;20403;-86
2023/09/04 04:34:02;;;;;;;4.33;3.93;;;17.30;1.00;;;;;;5042295;28;20391;-86
2023/09/04 04:36:27;;;;;;;5.17;4.67;;;16.80;1.00;;;;;;5043551;28;20470;-85
2023/09/04 04:38:53;;;;;;;5.53;5.00;;;17.00;1.00;;;;;;5044799;28;20389;-85
2023/09/04 04:41:19;;;;;;;5.40;4.90;;;17.30;1.00;;;;;;5044963;28;20390;-86
2023/09/04 04:43:44;;;;;;;6.60;6.00;;;17.00;1.00;;;;;;5037250;28;20397;-87
2023/09/04 04:46:12;;;;;;;6.20;5.60;;;16.60;1.00;;;;;;5035804;28;20444;-86
2023/09/04 04:48:38;;;;;;;6.45;5.88;;;16.90;1.00;;;;;;5031149;28;20793;-86
2023/09/04 04:51:04;;;;;;;6.60;6.00;;;17.10;1.00;;;;;;5032169;28;20403;-86
2023/09/04 04:53:29;;;;;;;6.88;5.20;;;16.90;1.00;;;;;;5030323;28;20728;-86
2023/09/04 04:55:55;;;;;;;5.60;5.10;;;16.60;1.00;;;;;;5037575;28;20398;-86
2023/09/04 04:58:21;;;;;;;5.87;5.30;;;17.00;1.00;;;;;;5039309;28;20399;-86
2023/09/04 05:00:48;;;;;;;6.78;5.47;;;;;;;;;;5046713;28;20387;-86
2023/09/04 05:03:14;;;;;;;5.53;5.00;;;;;;;;;;5042261;28;20465;-85
2023/09/04 05:05:45;;;;;;;6.20;5.60;;;17.60;1.00;;;;;;5040950;28;20381;-86
2023/09/04 05:08:10;;;;;;;6.03;5.53;;;17.20;1.00;;;;;;5032908;28;20471;-86
2023/09/04 05:10:36;;;;;;;7.47;6.70;;;16.80;1.00;;;;;;5030411;28;20407;-86
2023/09/04 05:13:01;;;;;;;8.47;7.67;;;16.70;1.00;;;;;;5029231;28;20482;-86
2023/09/04 05:15:27;;;;;;;8.53;7.73;;;17.10;1.00;;;;;;5030134;28;20410;-86
2023/09/04 05:17:52;;;;;;;9.40;8.40;;;16.80;1.00;;;;;;5038211;28;20393;-86
2023/09/04 05:20:18;;;;;;;9.13;8.23;;;17.10;1.00;;;;;;5045569;28;20807;-86
2023/09/04 05:22:44;;;;;;;8.45;7.57;;;;;;;;;;5041389;28;20390;-86
2023/09/04 05:25:11;;;;;;;7.25;6.55;;;16.80;1.00;;;;;;5039970;28;20748;-86
2023/09/04 05:27:36;;;;;;;7.30;6.30;;;16.80;1.00;;;;;;5040350;28;20423;-86
2023/09/04 05:30:03;;;;;;;7.40;6.70;;;16.80;1.00;;;;;;5032212;28;20403;-86
2023/09/04 05:32:28;;;;;;;8.13;6.40;;;16.60;1.00;;;;;;5016673;28;20867;-86
2023/09/04 05:34:54;;;;;;;7.30;6.60;;;17.00;1.00;;;;;;5023841;28;20470;-86
2023/09/04 05:37:21;;;;;;;6.77;6.10;;;15.40;1.00;;;;;;5034651;28;20527;-86
2023/09/04 05:39:47;;;;;;;6.22;5.63;;;17.60;1.00;;;;;;5034610;28;20398;-86
2023/09/04 05:42:12;;;;;;;6.50;5.90;;;17.60;1.00;;;;;;5033080;28;20399;-86
2023/09/04 05:44:38;;;;;;;6.68;5.97;;;17.70;1.00;;;;;;5025855;28;20541;-86
2023/09/04 05:47:04;;;;;;;6.32;5.57;;;17.40;1.00;;;;;;5013459;28;20404;-85
2023/09/04 05:49:29;;;;;;;7.00;6.40;;;17.10;1.00;;;;;;5014630;28;20842;-87
2023/09/04 05:51:55;;;;;;;7.30;6.60;;;17.70;1.00;;;;;;5018183;28;20482;-86
2023/09/04 05:54:22;;;;;;;6.60;6.00;;;17.40;1.00;;;;;;5049931;28;20492;-86
2023/09/04 05:56:48;;;;;;;6.88;6.28;;;17.50;1.00;;;;;;5034630;28;20438;-86
2023/09/04 05:59:14;;;;;;;7.70;6.40;;;17.70;1.00;;;;;;5033280;28;20387;-86
2023/09/04 06:01:40;;;;;;;7.60;5.87;;;17.70;1.00;;;;;;5033238;28;20479;-86
2023/09/04 06:04:05;;;;;;;7.05;6.38;;;17.70;1.00;;;;;;5033005;28;20383;-85
2023/09/04 06:06:31;;;;;;;7.77;6.00;;;19.50;1.00;;;;;;5034823;28;20494;-86
2023/09/04 06:08:57;;;;;;;6.80;5.80;;;17.30;1.00;;;;;;5033237;28;20475;-86
2023/09/04 06:11:22;;;;;;;6.67;5.97;;;17.50;1.00;;;;;;5041004;28;20518;-86
2023/09/04 06:13:48;;;;;;;8.07;6.40;;;17.50;1.00;;;;;;5051736;28;20806;-86
2023/09/04 06:16:17;;;;;;;6.38;5.78;;;17.70;1.00;;;;;;5047514;28;20422;-86
2023/09/04 06:18:42;;;;;;;7.30;6.60;;;17.90;1.00;;;;;;5034280;28;20380;-86
2023/09/04 06:21:08;;;;;;;7.25;6.55;;;17.40;1.00;;;;;;5034336;28;20414;-85
2023/09/04 06:23:34;;;;;;;8.00;6.10;;;17.60;1.00;;;;;;5034356;28;20478;-86
2023/09/04 06:26:02;;;;;;;7.03;6.40;;;17.60;1.00;;;;;;5033595;28;20484;-86
2023/09/04 06:28:28;;;;;;;8.00;7.28;;;17.50;1.00;;;;;;5033948;28;20387;-86
2023/09/04 06:30:55;;;;;;;8.50;6.72;;;17.60;1.00;;;;;;5033362;28;20410;-85
2023/09/04 06:33:22;;;;;;;7.22;6.50;;;17.70;1.00;;;;;;5034774;28;20384;-86
2023/09/04 06:35:49;;;;;;;6.70;6.10;;;;;;;;;;5046827;28;20883;-87
2023/09/04 06:38:15;;;;;;;8.60;7.15;;;18.00;1.00;;;;;;5057511;28;20473;-86
2023/09/04 06:40:42;;;;;;;7.10;6.50;;;17.70;1.00;;;;;;5058026;28;20409;-86
2023/09/04 06:43:08;;;;;;;7.53;6.65;;;18.40;1.00;;;;;;5054712;28;20391;-87
2023/09/04 06:45:36;;;;;;;7.63;6.50;;;18.30;1.00;;;;;;5039654;28;20538;-86
2023/09/04 06:48:02;;;;;;;9.07;7.18;;;18.50;1.00;;;;;;5039233;28;20489;-85
2023/09/04 06:50:27;;;;;;;7.93;6.40;;;18.10;1.00;;;;;;5035776;28;20482;-86
2023/09/04 06:52:53;;;;;;;10.05;6.70;;;17.90;1.00;;;;;;5036497;28;20992;-85
2023/09/04 06:55:18;;;;;;;6.77;6.13;;;18.50;1.00;;;;;;5048289;28;20432;-87
2023/09/04 06:57:44;;;;;;;7.43;6.70;;;18.30;1.00;;;;;;5046499;28;20412;-86
2023/09/04 07:00:11;;;;;;;8.67;7.87;;;18.70;1.00;;;;;;5037240;28;20388;-86
2023/09/04 07:02:36;;;;;;;7.72;7.03;;;18.30;1.00;;;;;;5031470;28;20383;-86
2023/09/04 07:05:03;;;;;;;7.90;7.10;;;18.40;1.00;;;;;;5033789;28;20441;-86
2023/09/04 07:07:28;;;;;;;8.52;7.20;;;18.10;1.00;;;;;;5033905;28;20401;-85
2023/09/04 07:09:54;;;;;;;9.18;8.00;;;17.90;1.00;;;;;;5034795;28;20387;-86
2023/09/04 07:12:19;;;;;;;9.67;8.00;;;18.10;1.00;;;;;;5032837;28;20550;-87
2023/09/04 07:14:45;;;;;;;8.53;7.67;;;18.40;1.00;;;;;;5034140;28;20792;-86
2023/09/04 07:17:10;;;;;;;7.90;7.10;;;18.90;1.00;;;;;;5044127;28;20391;-86
2023/09/04 07:19:38;;;;;;;8.10;6.93;;;18.90;1.00;;;;;;5041610;28;20653;-86
2023/09/04 07:22:03;;;;;;;7.97;6.43;;;18.30;1.00;;;;;;5045636;28;20467;-86
2023/09/04 07:24:29;;;;;;;7.97;7.27;;;18.50;1.00;;;;;;5036392;28;20394;-86
2023/09/04 07:26:54;;;;;;;7.88;6.90;;;18.80;1.00;;;;;;5063713;28;20412;-86
2023/09/04 07:29:21;;;;;;;6.17;5.67;;;18.50;1.00;;;;;;5063685;28;20394;-86
2023/09/04 07:31:47;;;;;;;7.78;5.65;;;;;;;;;;5066604;28;20413;-86
2023/09/04 07:34:13;;;;;;;7.72;6.95;;;19.20;1.00;;;;;;5074328;28;20361;-86
2023/09/04 07:36:38;;;;;;;6.25;5.75;;;19.30;1.00;;;;;;5049223;28;20401;-85
2023/09/04 07:39:04;;;;;;;6.30;5.70;;;19.10;1.00;;;;;;5049252;28;20387;-86
2023/09/04 07:41:30;;;;;;;8.00;5.82;;;19.60;1.00;;;;;;5054614;28;20477;-86
2023/09/04 07:43:55;;;;;;;7.65;5.80;;;19.10;1.00;;;;;;5039995;28;20445;-87
2023/09/04 07:46:21;;;;;;;6.30;5.70;;;19.10;1.00;;;;;;5035889;28;20404;-86
2023/09/04 07:48:47;;;;;;;5.80;5.30;;;19.40;1.00;;;;;;5040131;28;20398;-86
2023/09/04 07:51:12;;;;;;;6.07;5.47;;;19.10;1.00;;;;;;5032915;28;20768;-86
2023/09/04 07:53:38;;;;;;;6.10;5.40;;;19.70;1.00;;;;;;5035139;28;20398;-86
2023/09/04 07:56:05;;;;;;;6.53;5.93;;;19.90;1.00;;;;;;5042791;28;20500;-86
2023/09/04 07:58:31;;;;;;;6.73;5.50;;;19.80;1.00;;;;;;5053247;28;20891;-86
2023/09/04 08:00:56;;;;;;;7.90;5.65;;;19.40;1.00;;;;;;5051834;28;20473;-86
2023/09/04 08:03:22;;;;;;;5.90;5.30;;;19.70;1.00;;;;;;5050022;28;20388;-87
2023/09/04 08:05:47;;;;;;;5.75;5.25;;;19.80;1.00;;;;;;5033390;28;20413;-85
2023/09/04 08:08:13;;;;;;;6.90;6.20;;;19.20;1.00;;;;;;5033368;28;20686;-86
2023/09/04 08:10:44;;;;;;;6.50;5.90;;;19.20;1.00;;;;;;5039723;28;20409;-85
2023/09/04 08:13:11;;;;;;;6.20;5.70;;;19.80;1.00;;;;;;5042130;28;20403;-85
2023/09/04 08:15:37;;;;;;;6.80;6.20;;;19.30;1.00;;;;;;5033227;28;20867;-85
2023/09/04 08:18:03;;;;;;;7.10;6.40;;;19.90;1.00;;;;;;5033268;28;20410;-85
2023/09/04 08:20:29;;;;;;;6.50;5.78;;;19.80;1.00;;;;;;5037831;28;20513;-85
2023/09/04 08:22:54;;;;;;;7.22;6.15;;;19.80;1.00;;;;;;5034589;28;20392;-86
2023/09/04 08:25:20;;;;;;;6.83;5.77;;;19.90;1.00;;;;;;5041624;28;20471;-85
2023/09/04 08:27:45;;;;;;;7.40;6.32;;;21.30;1.00;;;;;;5042140;28;20407;-85
2023/09/04 08:30:11;;;;;;;6.80;6.10;;;19.60;1.00;;;;;;5030377;28;20422;-85
2023/09/04 08:32:37;;;;;;;7.55;6.53;;;19.80;1.00;;;;;;5031447;28;20398;-86
2023/09/04 08:35:03;;;;;;;7.80;6.95;;;19.60;1.00;;;;;;5032158;28;20379;-85
2023/09/04 08:37:29;;;;;;;7.55;6.85;;;19.70;1.00;;;;;;5031467;28;20411;-85
2023/09/04 08:39:54;;;;;;;7.55;6.82;;;19.70;1.00;;;;;;5030060;28;20434;-85
2023/09/04 08:42:20;;;;;;;6.63;6.00;;;19.70;1.00;;;;;;5031287;28;20417;-85
2023/09/04 08:44:48;;;;;;;7.18;6.47;;;20.00;1.00;;;;;;5030843;28;20750;-85
2023/09/04 08:47:15;;;;;;;7.65;6.00;;;20.50;1.00;;;;;;5022798;28;20905;-85
2023/09/04 08:49:42;;;;;;;8.45;6.50;;;19.70;1.00;;;;;;5021429;28;20392;-86
2023/09/04 08:52:08;;;;;;;6.45;5.80;;;20.40;1.00;;;;;;5036405;28;20424;-86
2023/09/04 08:54:34;;;;;;;6.90;6.20;;;20.10;1.00;;;;;;5047813;28;20467;-87
2023/09/04 08:56:59;;;;;;;6.47;5.85;;;20.30;1.00;;;;;;5055977;28;20391;-86
2023/09/04 08:59:25;;;;;;;6.10;5.50;;;20.60;1.00;;;;;;5056641;28;20395;-88
2023/09/04 09:01:53;;;;;;;6.10;5.57;;;20.00;1.00;;;;;;5054870;28;20399;-85
2023/09/04 09:04:21;;;;;;;6.45;5.57;;;20.50;1.00;;;;;;5053060;28;20417;-83
2023/09/04 09:06:48;;;;;;;5.97;5.47;;;19.80;1.00;;;;;;5058571;28;20373;-83
2023/09/04 09:09:15;;;;;;;6.90;6.20;;;20.60;1.00;;;;;;5043127;28;20516;-85
2023/09/04 09:11:42;;;;;;;6.30;5.70;;;20.10;1.00;;;;;;5032094;28;20415;-84
2023/09/04 09:14:08;;;;;;;6.47;5.88;;;20.80;1.00;;;;;;5032316;28;20851;-83
2023/09/04 09:16:34;;;;;;;7.28;5.70;;;20.80;1.00;;;;;;5032202;28;20771;-82
2023/09/04 09:19:01;;;;;;;5.97;5.47;;;20.40;1.00;;;;;;5033918;28;20441;-83
2023/09/04 09:21:28;;;;;;;5.65;5.10;;;21.60;1.00;;;;;;5033844;28;20427;-84
2023/09/04 09:24:18;;;;;;;6.40;5.80;;;20.80;1.00;;;;;;5039988;28;20383;-83
2023/09/04 09:26:48;;;;;;;5.10;4.70;;;21.40;1.00;;;;;;5040406;28;20399;-83
2023/09/04 09:29:15;;;;;;;5.75;5.22;;;22.30;1.00;;;;;;5040485;28;20470;-84
2023/09/04 09:31:43;;;;;;;7.18;5.85;;;21.60;1.00;;;;;;5037764;28;20446;-83
2023/09/04 09:34:10;;;;;;;7.40;5.95;;;21.20;1.00;;;;;;5035721;28;20391;-83
2023/09/04 09:36:36;;;;;;;5.72;5.13;;;20.80;1.00;;;;;;5036456;28;20462;-82
2023/09/04 09:39:03;;;;;;;6.88;5.40;;;20.60;1.00;;;;;;5036811;28;20469;-83
2023/09/04 09:41:29;;;;;;;6.32;5.72;;;21.50;1.00;;;;;;5037149;28;20383;-83
2023/09/04 09:43:55;;;;;;;6.25;5.65;;;21.50;1.00;;;;;;5033746;28;20406;-84
2023/09/04 09:46:21;;;;;;;5.97;5.38;;;21.40;1.00;;;;;;5024905;28;20394;-83
2023/09/04 09:48:47;;;;;;;6.17;4.50;;;22.80;1.00;;;;;;5033332;28;20461;-83
2023/09/04 09:51:13;;;;;;;6.60;5.35;;;21.70;1.00;;;;;;5035129;28;20414;-83
2023/09/04 09:53:49;;;;;;;5.40;4.90;;;21.60;1.00;;;;;;5033200;28;20926;-83
2023/09/04 09:56:17;;;;;;;5.70;4.15;;;21.90;1.00;;;;;;5035775;28;20413;-84
2023/09/04 09:58:45;;;;;;;4.67;4.10;;;22.10;1.00;;;;;;5036454;28;20470;-83
2023/09/04 10:01:13;;;;;;;5.28;4.78;;;22.00;1.00;;;;;;5025850;28;20419;-89
2023/09/04 10:03:39;;;;;;;6.05;5.28;;;;;;;;;;5013004;28;20776;-88
2023/09/04 10:06:06;;;;;;;6.15;5.55;;;22.10;1.00;;;;;;5012860;28;20408;-86
2023/09/04 10:08:42;;;;;;;5.75;4.80;;;22.10;1.00;;;;;;5015775;28;20872;-86
2023/09/04 10:11:12;;;;;;;5.30;4.80;;;22.70;1.00;;;;;;5014471;28;20412;-86
2023/09/04 10:14:03;;;;;;;5.22;4.72;;;21.90;1.00;;;;;;5013599;28;20392;-86
2023/09/04 10:16:33;;;;;;;5.28;4.85;;;22.10;1.00;;;;;;5019258;28;20402;-86
2023/09/04 10:19:02;;;;;;;5.68;5.10;;;22.10;1.00;;;;;;5033769;28;20387;-85
2023/09/04 10:21:33;;;;;;;5.18;4.68;;;22.50;1.00;;;;;;5035054;28;20398;-84
2023/09/04 10:24:04;;;;;;;5.63;5.13;;;22.50;1.00;;;;;;5035150;28;20391;-84
2023/09/04 10:26:39;;;;;;;4.90;4.35;;;22.50;1.00;;;;;;5034432;28;20391;-85
2023/09/04 10:29:10;;;;;;;5.88;4.35;;;22.30;1.00;;;;;;5033638;28;20414;-90
2023/09/04 10:31:37;;;;;;;5.30;4.63;;;22.40;1.00;;;;;;5034743;28;20411;-86
2023/09/04 10:34:03;;;;;;;4.50;4.00;;;22.50;1.00;;;;;;5036854;28;20375;-86
2023/09/04 10:36:30;;;;;;;4.03;3.63;;;22.70;1.00;;;;;;5042219;28;20398;-87
2023/09/04 10:39:01;;;;;;;4.25;3.85;;;22.80;1.00;;;;;;5041962;28;20375;-89
2023/09/04 10:41:28;;;;;;;3.92;3.63;;;22.50;1.00;;;;;;5031695;28;20559;-77
2023/09/04 10:43:53;;;;;;;4.00;3.70;;;22.30;1.00;;;;;;5021758;28;20415;-79
2023/09/04 10:46:20;;;;;;;5.30;4.03;;;23.00;1.00;;;;;;5027379;28;20399;-80
2023/09/04 10:48:51;;;;;;;4.47;4.07;;;25.00;1.00;;;;;;5025811;28;20396;-81
2023/09/04 10:51:36;;;;;;;4.60;4.10;;;23.30;1.00;;;;;;5028792;28;20895;-80
2023/09/04 10:54:14;;;;;;;4.90;4.40;;;23.60;1.00;;;;;;5031123;28;20391;-79
2023/09/04 10:56:52;;;;;;;4.40;3.50;;;23.70;1.00;;;;;;5023431;28;20442;-79
2023/09/04 10:59:18;;;;;;;4.72;3.80;;;24.80;1.00;;;;;;5028221;28;20383;-80
2023/09/04 11:01:43;;;;;;;4.90;4.27;;;23.70;1.00;;;;;;5028352;28;20396;-80
2023/09/04 11:04:09;;;;;;;4.68;3.85;;;23.70;1.00;;;;;;5029545;28;20392;-80
2023/09/04 11:06:39;;;;;;;4.20;3.80;;;23.50;1.00;;;;;;5027899;28;20869;-79
2023/09/04 11:09:05;;;;;;;4.15;3.75;;;25.10;1.00;;;;;;5025245;28;20387;-80
2023/09/04 11:11:32;;;;;;;3.70;3.40;;;23.80;1.00;;;;;;5027181;28;20449;-80
2023/09/04 11:14:02;;;;;;;3.60;3.30;;;24.40;1.00;;;;;;5028400;28;20970;-80
2023/09/04 11:16:38;;;;;;;3.85;3.20;;;24.50;1.00;;;;;;5034012;28;20389;-80
2023/09/04 11:19:24;;;;;;;3.67;3.38;;;24.50;1.00;;;;;;5025396;28;20398;-78
2023/09/04 11:21:49;;;;;;;3.88;3.58;;;24.70;1.00;;;;;;5022520;28;20407;-79
2023/09/04 11:24:17;;;;;;;3.63;3.33;;;24.80;1.00;;;;;;5030050;28;20882;-78
2023/09/04 11:26:43;;;;;;;3.87;3.40;;;24.70;1.00;;;;;;5029757;28;20828;-77
2023/09/04 11:29:08;;;;;;;4.45;3.38;;;26.10;1.00;;;;;;5024577;28;20478;-78
2023/09/04 11:31:34;;;;;;;4.30;3.30;;;26.60;1.00;;;;;;5021299;28;20415;-78
2023/09/04 11:34:00;;;;;;;3.40;3.10;;;26.50;1.00;;;;;;5023386;28;20965;-78
2023/09/04 11:36:26;;;;;;;3.90;3.40;;;28.60;1.00;;;;;;5024642;28;20415;-77
2023/09/04 11:39:19;;;;;;;3.30;3.10;;;28.50;1.00;;;;;;5022391;28;20416;-78
2023/09/04 11:41:46;;;;;;;3.00;2.80;;;28.30;1.00;;;;;;5017003;28;20408;-79
2023/09/04 11:44:12;;;;;;;4.40;3.10;;;27.60;1.00;;;;;;5037943;28;20393;-78
2023/09/04 11:46:38;;;;;;;3.00;2.80;;;29.40;1.00;;;;;;5035576;28;20427;-78
2023/09/04 11:49:04;;;;;;;2.85;2.55;;;27.90;1.00;;;;;;5043829;28;20761;-78
2023/09/04 11:51:32;;;;;;;3.30;2.90;;;28.00;1.00;;;;;;5034949;28;20416;-81
2023/09/04 11:53:57;;;;;;;2.83;2.50;;;28.90;1.00;;;;;;5052424;28;20405;-81
2023/09/04 11:56:23;;;;;;;3.23;2.93;;;29.60;1.00;;;;;;5046675;28;20378;-81
2023/09/04 11:58:48;;;;;;;3.50;2.80;;;29.90;1.00;;;;;;5054346;28;20744;-83
2023/09/04 12:01:14;;;;;;;3.00;2.80;;;28.70;1.00;;;;;;5058554;28;20381;-82
2023/09/04 12:03:40;;;;;;;3.35;3.08;;;28.60;1.00;;;;;;5058057;28;20401;-82
2023/09/04 12:06:06;;;;;;;3.20;3.00;;;;;;;;;;5057381;28;20417;-83
2023/09/04 12:08:32;;;;;;;3.30;3.00;;;28.30;1.00;;;;;;5055397;28;20463;-82
2023/09/04 12:10:57;;;;;;;3.28;3.00;;;28.20;1.00;;;;;;5046546;28;21001;-85
2023/09/04 12:13:23;;;;;;;4.50;2.80;;;28.50;1.00;;;;;;5046327;28;20391;-85
2023/09/04 12:15:49;;;;;;;3.45;2.95;;;29.00;1.00;;;;;;5046984;28;20393;-86
2023/09/04 12:18:15;;;;;;;3.60;3.25;;;27.30;1.00;;;;;;5044671;28;20391;-83
2023/09/04 12:20:43;;;;;;;3.40;2.90;;;28.10;1.00;;;;;;5053520;28;20516;-85
2023/09/04 12:23:09;;;;;;;3.70;2.97;;;27.70;1.00;;;;;;5056292;28;20385;-84
2023/09/04 12:25:43;;;;;;;4.00;2.90;;;28.20;1.00;;;;;;5058174;28;20385;-88
2023/09/04 12:28:11;;;;;;;3.92;3.50;;;28.30;1.00;;;;;;5055161;28;20468;-84
2023/09/04 12:30:40;;;;;;;3.58;2.95;;;28.10;1.00;;;;;;5056058;28;20785;-85
2023/09/04 12:33:09;;;;;;;3.45;2.95;;;27.60;1.00;;;;;;5059403;28;20389;-85
2023/09/04 12:35:35;;;;;;;3.50;3.20;;;27.80;1.00;;;;;;5042517;28;20439;-86
2023/09/04 12:38:00;;;;;;;3.00;2.80;;;29.90;1.00;;;;;;5051736;28;20395;-85
2023/09/04 12:40:26;;;;;;;3.33;3.00;;;29.30;1.00;;;;;;5051612;28;20424;-85
2023/09/04 12:42:51;;;;;;;3.20;3.00;;;28.30;1.00;;;;;;5069991;28;20398;-84
2023/09/04 12:45:17;;;;;;;3.80;3.50;;;28.00;1.00;;;;;;5050692;28;20416;-85
2023/09/04 12:47:43;;;;;;;3.53;3.22;;;28.40;1.00;;;;;;5037493;28;20562;-86
2023/09/04 12:50:09;;;;;;;3.40;3.00;;;28.50;1.00;;;;;;5040508;28;20391;-85
2023/09/04 12:52:34;;;;;;;3.20;2.90;;;28.10;1.00;;;;;;5040772;28;20387;-87
2023/09/04 12:55:00;;;;;;;3.60;3.30;;;28.80;1.00;;;;;;5040689;28;20398;-87
2023/09/04 12:57:26;;;;;;;3.63;3.33;;;28.20;1.00;;;;;;5037295;28;20399;-85
2023/09/04 12:59:51;;;;;;;3.30;3.00;;;29.00;1.00;;;;;;5054782;28;20387;-85